sensor_id;sensor_type;location;lat;lon;timestamp;P1;durP1;ratioP1;P2;durP2;ratioP2
69256;SDS011;56376;53.356;-1.748;2022-11-24T00:00:46;3.90;;;1.60;;
69256;SDS011;56376;53.356;-1.748;2022-11-24T00:03:12;5.10;;;1.67;;
69256;SDS011;56376;53.356;-1.748;2022-11-24T00:05:37;5.60;;;2.20;;
69256;SDS011;56376;53.356;-1.748;2022-11-24T00:08:03;7.33;;;2.43;;
69256;SDS011;56376;53.356;-1.748;2022-11-24T00:10:28;4.30;;;1.93;;
69256;SDS011;56376;53.356;-1.748;2022-11-24T00:12:54;5.40;;;2.00;;
69256;SDS011;56376;53.356;-1.748;2022-11-24T00:15:19;6.43;;;2.03;;
69256;SDS011;56376;53.356;-1.748;2022-11-24T00:17:45;5.83;;;1.47;;
69256;SDS011;56376;53.356;-1.748;2022-11-24T00:20:10;8.27;;;2.10;;
69256;SDS011;56376;53.356;-1.748;2022-11-24T00:22:36;7.33;;;3.07;;
69256;SDS011;56376;53.356;-1.748;2022-11-24T00:25:01;15.07;;;1.83;;
69256;SDS011;56376;53.356;-1.748;2022-11-24T00:27:27;4.80;;;1.47;;
69256;SDS011;56376;53.356;-1.748;2022-11-24T00:29:52;3.00;;;1.77;;
69256;SDS011;56376;53.356;-1.748;2022-11-24T00:32:18;7.13;;;2.20;;
69256;SDS011;56376;53.356;-1.748;2022-11-24T00:34:43;5.23;;;1.83;;
69256;SDS011;56376;53.356;-1.748;2022-11-24T00:37:08;5.97;;;2.30;;
69256;SDS011;56376;53.356;-1.748;2022-11-24T00:39:34;4.93;;;1.50;;
69256;SDS011;56376;53.356;-1.748;2022-11-24T00:41:59;5.00;;;1.87;;
69256;SDS011;56376;53.356;-1.748;2022-11-24T00:44:24;4.93;;;1.70;;
69256;SDS011;56376;53.356;-1.748;2022-11-24T00:46:50;4.10;;;2.00;;
69256;SDS011;56376;53.356;-1.748;2022-11-24T00:49:15;6.77;;;1.97;;
69256;SDS011;56376;53.356;-1.748;2022-11-24T00:51:41;4.60;;;1.80;;
69256;SDS011;56376;53.356;-1.748;2022-11-24T00:54:06;3.50;;;1.70;;
69256;SDS011;56376;53.356;-1.748;2022-11-24T00:56:31;4.00;;;1.43;;
69256;SDS011;56376;53.356;-1.748;2022-11-24T00:58:57;8.83;;;2.13;;
69256;SDS011;56376;53.356;-1.748;2022-11-24T01:01:24;5.83;;;1.50;;
69256;SDS011;56376;53.356;-1.748;2022-11-24T01:03:51;4.70;;;1.73;;
69256;SDS011;56376;53.356;-1.748;2022-11-24T01:06:20;2.67;;;1.10;;
69256;SDS011;56376;53.356;-1.748;2022-11-24T01:08:47;4.73;;;1.90;;
69256;SDS011;56376;53.356;-1.748;2022-11-24T01:13:38;4.10;;;1.50;;
69256;SDS011;56376;53.356;-1.748;2022-11-24T01:16:05;6.83;;;1.73;;
69256;SDS011;56376;53.356;-1.748;2022-11-24T01:18:31;4.20;;;1.47;;
69256;SDS011;56376;53.356;-1.748;2022-11-24T01:20:56;4.60;;;1.70;;
69256;SDS011;56376;53.356;-1.748;2022-11-24T01:23:22;3.30;;;1.70;;
69256;SDS011;56376;53.356;-1.748;2022-11-24T01:25:47;5.43;;;1.77;;
69256;SDS011;56376;53.356;-1.748;2022-11-24T01:28:13;8.87;;;2.33;;
69256;SDS011;56376;53.356;-1.748;2022-11-24T01:30:38;3.90;;;1.40;;
69256;SDS011;56376;53.356;-1.748;2022-11-24T01:33:04;6.03;;;1.73;;
69256;SDS011;56376;53.356;-1.748;2022-11-24T01:35:29;5.63;;;2.00;;
69256;SDS011;56376;53.356;-1.748;2022-11-24T01:37:54;5.17;;;1.97;;
69256;SDS011;56376;53.356;-1.748;2022-11-24T01:40:20;6.10;;;2.07;;
69256;SDS011;56376;53.356;-1.748;2022-11-24T01:42:46;2.97;;;1.77;;
69256;SDS011;56376;53.356;-1.748;2022-11-24T01:45:35;4.60;;;1.30;;
69256;SDS011;56376;53.356;-1.748;2022-11-24T01:48:05;4.73;;;1.33;;
69256;SDS011;56376;53.356;-1.748;2022-11-24T01:50:35;3.77;;;1.67;;
69256;SDS011;56376;53.356;-1.748;2022-11-24T01:53:01;4.47;;;1.60;;
69256;SDS011;56376;53.356;-1.748;2022-11-24T01:55:32;5.93;;;2.63;;
69256;SDS011;56376;53.356;-1.748;2022-11-24T01:58:02;5.00;;;1.60;;
69256;SDS011;56376;53.356;-1.748;2022-11-24T02:00:30;4.97;;;1.80;;
69256;SDS011;56376;53.356;-1.748;2022-11-24T02:02:58;6.07;;;1.97;;
69256;SDS011;56376;53.356;-1.748;2022-11-24T02:07:54;6.23;;;2.47;;
69256;SDS011;56376;53.356;-1.748;2022-11-24T02:10:23;2.30;;;1.37;;
69256;SDS011;56376;53.356;-1.748;2022-11-24T02:12:49;11.23;;;2.23;;
69256;SDS011;56376;53.356;-1.748;2022-11-24T02:15:17;5.57;;;1.90;;
69256;SDS011;56376;53.356;-1.748;2022-11-24T02:17:45;10.07;;;2.70;;
69256;SDS011;56376;53.356;-1.748;2022-11-24T02:20:10;5.03;;;1.87;;
69256;SDS011;56376;53.356;-1.748;2022-11-24T02:22:50;8.03;;;1.90;;
69256;SDS011;56376;53.356;-1.748;2022-11-24T02:27:55;6.97;;;2.20;;
69256;SDS011;56376;53.356;-1.748;2022-11-24T02:30:23;7.33;;;2.30;;
69256;SDS011;56376;53.356;-1.748;2022-11-24T02:32:48;7.87;;;1.97;;
69256;SDS011;56376;53.356;-1.748;2022-11-24T02:35:15;7.57;;;2.20;;
69256;SDS011;56376;53.356;-1.748;2022-11-24T02:37:41;5.50;;;2.17;;
69256;SDS011;56376;53.356;-1.748;2022-11-24T02:40:06;3.70;;;1.30;;
69256;SDS011;56376;53.356;-1.748;2022-11-24T02:42:37;7.60;;;1.87;;
69256;SDS011;56376;53.356;-1.748;2022-11-24T02:47:33;5.97;;;2.17;;
69256;SDS011;56376;53.356;-1.748;2022-11-24T02:49:58;6.23;;;2.10;;
69256;SDS011;56376;53.356;-1.748;2022-11-24T02:52:24;6.83;;;2.53;;
69256;SDS011;56376;53.356;-1.748;2022-11-24T02:54:49;5.20;;;2.03;;
69256;SDS011;56376;53.356;-1.748;2022-11-24T02:57:15;5.00;;;2.23;;
69256;SDS011;56376;53.356;-1.748;2022-11-24T02:59:40;6.33;;;2.60;;
69256;SDS011;56376;53.356;-1.748;2022-11-24T03:02:05;10.07;;;1.93;;
69256;SDS011;56376;53.356;-1.748;2022-11-24T03:04:31;5.13;;;1.80;;
69256;SDS011;56376;53.356;-1.748;2022-11-24T03:06:56;4.47;;;1.80;;
69256;SDS011;56376;53.356;-1.748;2022-11-24T03:09:22;5.43;;;1.70;;
69256;SDS011;56376;53.356;-1.748;2022-11-24T03:11:47;6.23;;;2.03;;
69256;SDS011;56376;53.356;-1.748;2022-11-24T03:14:13;7.53;;;1.83;;
69256;SDS011;56376;53.356;-1.748;2022-11-24T03:16:38;5.17;;;1.87;;
69256;SDS011;56376;53.356;-1.748;2022-11-24T03:19:04;4.80;;;1.70;;
69256;SDS011;56376;53.356;-1.748;2022-11-24T03:21:29;6.83;;;2.07;;
69256;SDS011;56376;53.356;-1.748;2022-11-24T03:23:55;6.77;;;2.03;;
69256;SDS011;56376;53.356;-1.748;2022-11-24T03:26:21;6.83;;;2.00;;
69256;SDS011;56376;53.356;-1.748;2022-11-24T03:28:48;7.47;;;2.77;;
69256;SDS011;56376;53.356;-1.748;2022-11-24T03:31:13;9.37;;;2.40;;
69256;SDS011;56376;53.356;-1.748;2022-11-24T03:33:39;9.17;;;2.73;;
69256;SDS011;56376;53.356;-1.748;2022-11-24T03:36:05;7.53;;;1.80;;
69256;SDS011;56376;53.356;-1.748;2022-11-24T03:38:31;7.60;;;2.10;;
69256;SDS011;56376;53.356;-1.748;2022-11-24T03:40:57;8.40;;;2.20;;
69256;SDS011;56376;53.356;-1.748;2022-11-24T03:43:23;8.13;;;2.37;;
69256;SDS011;56376;53.356;-1.748;2022-11-24T03:45:48;6.63;;;2.30;;
69256;SDS011;56376;53.356;-1.748;2022-11-24T03:48:14;8.30;;;2.57;;
69256;SDS011;56376;53.356;-1.748;2022-11-24T03:50:41;11.63;;;2.60;;
69256;SDS011;56376;53.356;-1.748;2022-11-24T03:53:07;8.87;;;2.30;;
69256;SDS011;56376;53.356;-1.748;2022-11-24T03:55:32;11.63;;;2.50;;
69256;SDS011;56376;53.356;-1.748;2022-11-24T03:57:58;7.30;;;3.07;;
69256;SDS011;56376;53.356;-1.748;2022-11-24T04:00:23;5.23;;;1.90;;
69256;SDS011;56376;53.356;-1.748;2022-11-24T04:02:49;10.20;;;2.23;;
69256;SDS011;56376;53.356;-1.748;2022-11-24T04:05:14;7.43;;;3.03;;
69256;SDS011;56376;53.356;-1.748;2022-11-24T04:07:40;10.30;;;2.40;;
69256;SDS011;56376;53.356;-1.748;2022-11-24T04:10:05;14.80;;;2.57;;
69256;SDS011;56376;53.356;-1.748;2022-11-24T04:12:31;5.77;;;2.00;;
69256;SDS011;56376;53.356;-1.748;2022-11-24T04:15:13;5.00;;;2.33;;
69256;SDS011;56376;53.356;-1.748;2022-11-24T04:17:40;8.03;;;2.87;;
69256;SDS011;56376;53.356;-1.748;2022-11-24T04:20:06;6.30;;;1.80;;
69256;SDS011;56376;53.356;-1.748;2022-11-24T04:22:32;5.70;;;1.67;;
69256;SDS011;56376;53.356;-1.748;2022-11-24T04:24:57;6.23;;;1.67;;
69256;SDS011;56376;53.356;-1.748;2022-11-24T04:27:23;7.43;;;2.27;;
69256;SDS011;56376;53.356;-1.748;2022-11-24T04:29:48;6.67;;;2.90;;
69256;SDS011;56376;53.356;-1.748;2022-11-24T04:32:15;7.00;;;3.23;;
69256;SDS011;56376;53.356;-1.748;2022-11-24T04:34:40;8.63;;;2.57;;
69256;SDS011;56376;53.356;-1.748;2022-11-24T04:37:06;11.87;;;2.53;;
69256;SDS011;56376;53.356;-1.748;2022-11-24T04:39:31;8.17;;;2.13;;
69256;SDS011;56376;53.356;-1.748;2022-11-24T04:41:57;8.60;;;1.80;;
69256;SDS011;56376;53.356;-1.748;2022-11-24T04:44:22;5.70;;;1.67;;
69256;SDS011;56376;53.356;-1.748;2022-11-24T04:46:47;4.83;;;1.80;;
69256;SDS011;56376;53.356;-1.748;2022-11-24T04:49:13;8.03;;;2.63;;
69256;SDS011;56376;53.356;-1.748;2022-11-24T04:51:38;4.93;;;2.00;;
69256;SDS011;56376;53.356;-1.748;2022-11-24T04:54:08;8.17;;;1.83;;
69256;SDS011;56376;53.356;-1.748;2022-11-24T04:56:35;6.93;;;1.90;;
69256;SDS011;56376;53.356;-1.748;2022-11-24T04:59:01;10.10;;;3.00;;
69256;SDS011;56376;53.356;-1.748;2022-11-24T05:01:26;5.37;;;1.50;;
69256;SDS011;56376;53.356;-1.748;2022-11-24T05:03:52;4.93;;;1.37;;
69256;SDS011;56376;53.356;-1.748;2022-11-24T05:06:18;10.20;;;2.17;;
69256;SDS011;56376;53.356;-1.748;2022-11-24T05:08:48;4.33;;;1.40;;
69256;SDS011;56376;53.356;-1.748;2022-11-24T05:11:14;8.70;;;2.03;;
69256;SDS011;56376;53.356;-1.748;2022-11-24T05:13:39;7.37;;;2.17;;
69256;SDS011;56376;53.356;-1.748;2022-11-24T05:16:05;4.07;;;1.60;;
69256;SDS011;56376;53.356;-1.748;2022-11-24T05:18:30;5.13;;;1.70;;
69256;SDS011;56376;53.356;-1.748;2022-11-24T05:20:57;5.30;;;1.50;;
69256;SDS011;56376;53.356;-1.748;2022-11-24T05:23:22;5.77;;;1.60;;
69256;SDS011;56376;53.356;-1.748;2022-11-24T05:25:48;3.53;;;1.30;;
69256;SDS011;56376;53.356;-1.748;2022-11-24T05:28:14;6.87;;;2.50;;
69256;SDS011;56376;53.356;-1.748;2022-11-24T05:30:41;6.93;;;1.57;;
69256;SDS011;56376;53.356;-1.748;2022-11-24T05:33:06;5.13;;;1.53;;
69256;SDS011;56376;53.356;-1.748;2022-11-24T05:35:35;7.10;;;1.90;;
69256;SDS011;56376;53.356;-1.748;2022-11-24T05:38:01;6.57;;;2.20;;
69256;SDS011;56376;53.356;-1.748;2022-11-24T05:40:28;9.10;;;2.23;;
69256;SDS011;56376;53.356;-1.748;2022-11-24T05:42:53;6.87;;;1.60;;
69256;SDS011;56376;53.356;-1.748;2022-11-24T05:45:20;6.50;;;2.33;;
69256;SDS011;56376;53.356;-1.748;2022-11-24T05:47:46;5.70;;;2.20;;
69256;SDS011;56376;53.356;-1.748;2022-11-24T05:50:13;4.67;;;2.23;;
69256;SDS011;56376;53.356;-1.748;2022-11-24T05:52:40;5.43;;;2.00;;
69256;SDS011;56376;53.356;-1.748;2022-11-24T05:55:06;12.03;;;2.97;;
69256;SDS011;56376;53.356;-1.748;2022-11-24T05:57:32;11.73;;;3.37;;
69256;SDS011;56376;53.356;-1.748;2022-11-24T05:59:57;8.03;;;2.43;;
69256;SDS011;56376;53.356;-1.748;2022-11-24T06:02:23;7.40;;;2.00;;
69256;SDS011;56376;53.356;-1.748;2022-11-24T06:04:49;8.60;;;2.83;;
69256;SDS011;56376;53.356;-1.748;2022-11-24T06:07:14;11.20;;;3.63;;
69256;SDS011;56376;53.356;-1.748;2022-11-24T06:09:40;8.60;;;2.70;;
69256;SDS011;56376;53.356;-1.748;2022-11-24T06:12:06;12.30;;;3.70;;
69256;SDS011;56376;53.356;-1.748;2022-11-24T06:14:32;7.60;;;2.40;;
69256;SDS011;56376;53.356;-1.748;2022-11-24T06:16:59;11.83;;;4.33;;
69256;SDS011;56376;53.356;-1.748;2022-11-24T06:19:25;9.03;;;2.30;;
69256;SDS011;56376;53.356;-1.748;2022-11-24T06:21:50;13.90;;;3.73;;
69256;SDS011;56376;53.356;-1.748;2022-11-24T06:24:15;14.50;;;3.77;;
69256;SDS011;56376;53.356;-1.748;2022-11-24T06:26:41;10.63;;;3.50;;
69256;SDS011;56376;53.356;-1.748;2022-11-24T06:29:06;9.77;;;2.70;;
69256;SDS011;56376;53.356;-1.748;2022-11-24T06:31:32;8.23;;;2.43;;
69256;SDS011;56376;53.356;-1.748;2022-11-24T06:33:57;9.80;;;2.30;;
69256;SDS011;56376;53.356;-1.748;2022-11-24T06:36:24;14.03;;;3.10;;
69256;SDS011;56376;53.356;-1.748;2022-11-24T06:38:49;10.17;;;2.90;;
69256;SDS011;56376;53.356;-1.748;2022-11-24T06:41:15;9.20;;;3.17;;
69256;SDS011;56376;53.356;-1.748;2022-11-24T06:43:40;5.47;;;2.33;;
69256;SDS011;56376;53.356;-1.748;2022-11-24T06:46:06;7.50;;;2.87;;
69256;SDS011;56376;53.356;-1.748;2022-11-24T06:48:32;13.20;;;2.90;;
69256;SDS011;56376;53.356;-1.748;2022-11-24T06:50:58;16.43;;;4.53;;
69256;SDS011;56376;53.356;-1.748;2022-11-24T06:53:24;12.57;;;2.80;;
69256;SDS011;56376;53.356;-1.748;2022-11-24T06:55:50;8.07;;;2.43;;
69256;SDS011;56376;53.356;-1.748;2022-11-24T06:58:16;7.77;;;3.13;;
69256;SDS011;56376;53.356;-1.748;2022-11-24T07:00:42;8.83;;;3.20;;
69256;SDS011;56376;53.356;-1.748;2022-11-24T07:03:10;8.07;;;2.37;;
69256;SDS011;56376;53.356;-1.748;2022-11-24T07:05:41;11.33;;;2.83;;
69256;SDS011;56376;53.356;-1.748;2022-11-24T07:08:07;9.33;;;2.53;;
69256;SDS011;56376;53.356;-1.748;2022-11-24T07:10:33;8.53;;;3.10;;
69256;SDS011;56376;53.356;-1.748;2022-11-24T07:12:58;14.50;;;2.80;;
69256;SDS011;56376;53.356;-1.748;2022-11-24T07:15:24;14.67;;;3.13;;
69256;SDS011;56376;53.356;-1.748;2022-11-24T07:17:49;8.50;;;2.80;;
69256;SDS011;56376;53.356;-1.748;2022-11-24T07:20:14;12.63;;;3.20;;
69256;SDS011;56376;53.356;-1.748;2022-11-24T07:22:40;10.10;;;3.80;;
69256;SDS011;56376;53.356;-1.748;2022-11-24T07:25:06;11.10;;;2.43;;
69256;SDS011;56376;53.356;-1.748;2022-11-24T07:27:33;9.37;;;2.40;;
69256;SDS011;56376;53.356;-1.748;2022-11-24T07:29:59;12.00;;;3.00;;
69256;SDS011;56376;53.356;-1.748;2022-11-24T07:32:24;10.03;;;3.63;;
69256;SDS011;56376;53.356;-1.748;2022-11-24T07:34:49;8.83;;;3.27;;
69256;SDS011;56376;53.356;-1.748;2022-11-24T07:37:15;7.97;;;2.93;;
69256;SDS011;56376;53.356;-1.748;2022-11-24T07:39:40;9.00;;;2.20;;
69256;SDS011;56376;53.356;-1.748;2022-11-24T07:42:06;9.87;;;2.73;;
69256;SDS011;56376;53.356;-1.748;2022-11-24T07:44:32;12.43;;;3.97;;
69256;SDS011;56376;53.356;-1.748;2022-11-24T07:46:58;10.20;;;3.10;;
69256;SDS011;56376;53.356;-1.748;2022-11-24T07:49:23;7.70;;;2.57;;
69256;SDS011;56376;53.356;-1.748;2022-11-24T07:51:48;7.57;;;2.10;;
69256;SDS011;56376;53.356;-1.748;2022-11-24T07:54:14;11.23;;;2.73;;
69256;SDS011;56376;53.356;-1.748;2022-11-24T07:56:39;8.13;;;2.30;;
69256;SDS011;56376;53.356;-1.748;2022-11-24T07:59:04;10.30;;;2.50;;
69256;SDS011;56376;53.356;-1.748;2022-11-24T08:01:30;9.43;;;2.70;;
69256;SDS011;56376;53.356;-1.748;2022-11-24T08:03:55;9.43;;;2.80;;
69256;SDS011;56376;53.356;-1.748;2022-11-24T08:06:21;7.23;;;2.20;;
69256;SDS011;56376;53.356;-1.748;2022-11-24T08:08:46;5.73;;;2.30;;
69256;SDS011;56376;53.356;-1.748;2022-11-24T08:11:13;12.03;;;3.03;;
69256;SDS011;56376;53.356;-1.748;2022-11-24T08:13:40;6.07;;;2.67;;
69256;SDS011;56376;53.356;-1.748;2022-11-24T08:16:07;16.77;;;5.00;;
69256;SDS011;56376;53.356;-1.748;2022-11-24T08:18:35;9.50;;;4.00;;
69256;SDS011;56376;53.356;-1.748;2022-11-24T08:21:01;10.23;;;3.53;;
69256;SDS011;56376;53.356;-1.748;2022-11-24T08:23:27;12.83;;;4.07;;
69256;SDS011;56376;53.356;-1.748;2022-11-24T08:25:53;8.63;;;3.53;;
69256;SDS011;56376;53.356;-1.748;2022-11-24T08:28:20;9.80;;;2.90;;
69256;SDS011;56376;53.356;-1.748;2022-11-24T08:30:45;10.07;;;3.03;;
69256;SDS011;56376;53.356;-1.748;2022-11-24T08:33:11;10.33;;;3.53;;
69256;SDS011;56376;53.356;-1.748;2022-11-24T08:35:36;12.47;;;3.87;;
69256;SDS011;56376;53.356;-1.748;2022-11-24T08:38:02;8.80;;;3.30;;
69256;SDS011;56376;53.356;-1.748;2022-11-24T08:40:29;13.77;;;3.53;;
69256;SDS011;56376;53.356;-1.748;2022-11-24T08:42:58;11.73;;;3.77;;
69256;SDS011;56376;53.356;-1.748;2022-11-24T08:45:25;12.23;;;3.20;;
69256;SDS011;56376;53.356;-1.748;2022-11-24T08:47:53;10.00;;;2.73;;
69256;SDS011;56376;53.356;-1.748;2022-11-24T08:50:21;7.23;;;2.90;;
69256;SDS011;56376;53.356;-1.748;2022-11-24T08:52:49;10.23;;;3.13;;
69256;SDS011;56376;53.356;-1.748;2022-11-24T08:55:16;7.87;;;2.90;;
69256;SDS011;56376;53.356;-1.748;2022-11-24T08:57:41;9.17;;;3.10;;
69256;SDS011;56376;53.356;-1.748;2022-11-24T09:00:07;8.17;;;2.60;;
69256;SDS011;56376;53.356;-1.748;2022-11-24T09:02:33;9.40;;;3.00;;
69256;SDS011;56376;53.356;-1.748;2022-11-24T09:05:00;8.07;;;3.13;;
69256;SDS011;56376;53.356;-1.748;2022-11-24T09:07:26;8.67;;;3.13;;
69256;SDS011;56376;53.356;-1.748;2022-11-24T09:09:51;12.70;;;3.77;;
69256;SDS011;56376;53.356;-1.748;2022-11-24T09:12:16;9.73;;;3.10;;
69256;SDS011;56376;53.356;-1.748;2022-11-24T09:14:42;10.83;;;3.20;;
69256;SDS011;56376;53.356;-1.748;2022-11-24T09:17:07;12.50;;;3.57;;
69256;SDS011;56376;53.356;-1.748;2022-11-24T09:19:32;12.87;;;3.50;;
69256;SDS011;56376;53.356;-1.748;2022-11-24T09:21:58;9.90;;;3.83;;
69256;SDS011;56376;53.356;-1.748;2022-11-24T09:24:23;15.57;;;4.40;;
69256;SDS011;56376;53.356;-1.748;2022-11-24T09:26:49;12.50;;;4.20;;
69256;SDS011;56376;53.356;-1.748;2022-11-24T09:29:14;15.80;;;5.80;;
69256;SDS011;56376;53.356;-1.748;2022-11-24T09:31:39;15.70;;;4.20;;
69256;SDS011;56376;53.356;-1.748;2022-11-24T09:34:06;14.37;;;4.67;;
69256;SDS011;56376;53.356;-1.748;2022-11-24T09:36:33;16.33;;;4.40;;
69256;SDS011;56376;53.356;-1.748;2022-11-24T09:38:58;14.70;;;5.40;;
69256;SDS011;56376;53.356;-1.748;2022-11-24T09:50:12;17.87;;;4.77;;
69256;SDS011;56376;53.356;-1.748;2022-11-24T09:55:27;22.10;;;7.50;;
69256;SDS011;56376;53.356;-1.748;2022-11-24T10:01:19;24.77;;;6.00;;
69256;SDS011;56376;53.356;-1.748;2022-11-24T10:03:52;23.40;;;6.70;;
69256;SDS011;56376;53.356;-1.748;2022-11-24T10:06:26;22.33;;;5.73;;
69256;SDS011;56376;53.356;-1.748;2022-11-24T10:12:12;14.80;;;4.82;;
69256;SDS011;56376;53.356;-1.748;2022-11-24T10:19:52;20.60;;;6.10;;
69256;SDS011;56376;53.356;-1.748;2022-11-24T10:22:34;23.13;;;5.33;;
69256;SDS011;56376;53.356;-1.748;2022-11-24T10:28:03;20.60;;;5.87;;
69256;SDS011;56376;53.356;-1.748;2022-11-24T10:30:36;22.80;;;5.63;;
69256;SDS011;56376;53.356;-1.748;2022-11-24T10:33:17;19.47;;;5.80;;
69256;SDS011;56376;53.356;-1.748;2022-11-24T10:40:46;16.57;;;4.73;;
69256;SDS011;56376;53.356;-1.748;2022-11-24T10:43:14;14.13;;;4.63;;
69256;SDS011;56376;53.356;-1.748;2022-11-24T10:45:40;16.17;;;4.07;;
69256;SDS011;56376;53.356;-1.748;2022-11-24T10:48:07;13.93;;;3.90;;
69256;SDS011;56376;53.356;-1.748;2022-11-24T10:50:41;15.13;;;4.63;;
69256;SDS011;56376;53.356;-1.748;2022-11-24T11:00:51;14.10;;;3.97;;
69256;SDS011;56376;53.356;-1.748;2022-11-24T11:08:27;14.50;;;4.13;;
69256;SDS011;56376;53.356;-1.748;2022-11-24T11:13:55;19.70;;;5.23;;
69256;SDS011;56376;53.356;-1.748;2022-11-24T11:16:25;17.37;;;5.10;;
69256;SDS011;56376;53.356;-1.748;2022-11-24T11:18:59;14.77;;;4.63;;
69256;SDS011;56376;53.356;-1.748;2022-11-24T11:23:55;16.37;;;4.43;;
69256;SDS011;56376;53.356;-1.748;2022-11-24T11:31:32;12.57;;;4.20;;
69256;SDS011;56376;53.356;-1.748;2022-11-24T11:36:34;14.93;;;5.07;;
69256;SDS011;56376;53.356;-1.748;2022-11-24T11:39:04;12.73;;;3.73;;
69256;SDS011;56376;53.356;-1.748;2022-11-24T11:41:35;16.03;;;2.93;;
69256;SDS011;56376;53.356;-1.748;2022-11-24T11:46:57;19.80;;;5.00;;
69256;SDS011;56376;53.356;-1.748;2022-11-24T11:49:26;15.77;;;4.23;;
69256;SDS011;56376;53.356;-1.748;2022-11-24T11:51:55;11.20;;;4.77;;
69256;SDS011;56376;53.356;-1.748;2022-11-24T11:54:51;12.63;;;4.07;;
69256;SDS011;56376;53.356;-1.748;2022-11-24T12:05:50;15.70;;;4.43;;
69256;SDS011;56376;53.356;-1.748;2022-11-24T12:08:38;12.27;;;3.33;;
69256;SDS011;56376;53.356;-1.748;2022-11-24T12:11:15;14.23;;;5.50;;
69256;SDS011;56376;53.356;-1.748;2022-11-24T12:14:04;19.30;;;4.83;;
69256;SDS011;56376;53.356;-1.748;2022-11-24T12:19:34;23.73;;;6.93;;
69256;SDS011;56376;53.356;-1.748;2022-11-24T12:30:19;19.13;;;5.33;;
69256;SDS011;56376;53.356;-1.748;2022-11-24T12:32:51;21.70;;;5.15;;
69256;SDS011;56376;53.356;-1.748;2022-11-24T12:35:43;14.87;;;4.33;;
69256;SDS011;56376;53.356;-1.748;2022-11-24T12:43:44;9.70;;;4.65;;
69256;SDS011;56376;53.356;-1.748;2022-11-24T12:48:51;11.60;;;4.00;;
69256;SDS011;56376;53.356;-1.748;2022-11-24T12:51:41;17.67;;;5.28;;
69256;SDS011;56376;53.356;-1.748;2022-11-24T12:54:12;18.17;;;4.28;;
69256;SDS011;56376;53.356;-1.748;2022-11-24T12:56:46;18.52;;;4.88;;
69256;SDS011;56376;53.356;-1.748;2022-11-24T13:07:21;15.63;;;4.18;;
69256;SDS011;56376;53.356;-1.748;2022-11-24T13:15:17;22.92;;;4.88;;
69256;SDS011;56376;53.356;-1.748;2022-11-24T13:17:43;18.98;;;4.28;;
69256;SDS011;56376;53.356;-1.748;2022-11-24T13:22:43;24.20;;;5.63;;
69256;SDS011;56376;53.356;-1.748;2022-11-24T13:25:27;20.25;;;4.43;;
69256;SDS011;56376;53.356;-1.748;2022-11-24T13:27:55;16.83;;;5.07;;
69256;SDS011;56376;53.356;-1.748;2022-11-24T13:35:35;14.30;;;4.30;;
69256;SDS011;56376;53.356;-1.748;2022-11-24T13:38:02;15.85;;;4.38;;
69256;SDS011;56376;53.356;-1.748;2022-11-24T13:40:47;13.70;;;4.60;;
69256;SDS011;56376;53.356;-1.748;2022-11-24T13:43:17;10.68;;;4.05;;
69256;SDS011;56376;53.356;-1.748;2022-11-24T13:48:51;15.93;;;3.90;;
69256;SDS011;56376;53.356;-1.748;2022-11-24T13:58:48;22.40;;;5.43;;
69256;SDS011;56376;53.356;-1.748;2022-11-24T14:01:37;13.80;;;3.63;;
69256;SDS011;56376;53.356;-1.748;2022-11-24T14:14:37;16.48;;;4.63;;
69256;SDS011;56376;53.356;-1.748;2022-11-24T14:17:07;11.20;;;2.90;;
69256;SDS011;56376;53.356;-1.748;2022-11-24T14:19:37;15.95;;;4.03;;
69256;SDS011;56376;53.356;-1.748;2022-11-24T14:22:03;14.27;;;3.50;;
69256;SDS011;56376;53.356;-1.748;2022-11-24T14:24:30;7.43;;;2.70;;
69256;SDS011;56376;53.356;-1.748;2022-11-24T14:26:57;6.78;;;2.38;;
69256;SDS011;56376;53.356;-1.748;2022-11-24T14:29:23;2.35;;;1.00;;
69256;SDS011;56376;53.356;-1.748;2022-11-24T14:32:00;3.10;;;0.82;;
69256;SDS011;56376;53.356;-1.748;2022-11-24T14:34:28;1.13;;;0.77;;
69256;SDS011;56376;53.356;-1.748;2022-11-24T14:36:55;0.82;;;0.52;;
69256;SDS011;56376;53.356;-1.748;2022-11-24T14:39:22;1.17;;;0.47;;
69256;SDS011;56376;53.356;-1.748;2022-11-24T14:42:02;1.42;;;0.55;;
69256;SDS011;56376;53.356;-1.748;2022-11-24T14:47:34;0.40;;;0.35;;
69256;SDS011;56376;53.356;-1.748;2022-11-24T14:50:11;1.67;;;0.80;;
69256;SDS011;56376;53.356;-1.748;2022-11-24T14:52:42;1.90;;;0.60;;
69256;SDS011;56376;53.356;-1.748;2022-11-24T14:55:21;0.80;;;0.50;;
69256;SDS011;56376;53.356;-1.748;2022-11-24T14:57:51;2.08;;;0.77;;
69256;SDS011;56376;53.356;-1.748;2022-11-24T15:00:18;1.23;;;0.60;;
69256;SDS011;56376;53.356;-1.748;2022-11-24T15:02:54;1.27;;;1.05;;
69256;SDS011;56376;53.356;-1.748;2022-11-24T15:08:21;1.85;;;0.80;;
69256;SDS011;56376;53.356;-1.748;2022-11-24T15:10:54;1.77;;;0.70;;
69256;SDS011;56376;53.356;-1.748;2022-11-24T15:13:22;1.10;;;0.80;;
69256;SDS011;56376;53.356;-1.748;2022-11-24T15:15:53;1.63;;;1.08;;
69256;SDS011;56376;53.356;-1.748;2022-11-24T15:18:36;1.70;;;1.00;;
69256;SDS011;56376;53.356;-1.748;2022-11-24T15:21:06;1.63;;;0.80;;
69256;SDS011;56376;53.356;-1.748;2022-11-24T15:23:32;3.10;;;1.05;;
69256;SDS011;56376;53.356;-1.748;2022-11-24T15:28:30;0.93;;;0.68;;
69256;SDS011;56376;53.356;-1.748;2022-11-24T15:33:36;0.77;;;0.77;;
69256;SDS011;56376;53.356;-1.748;2022-11-24T15:36:02;1.13;;;0.70;;
69256;SDS011;56376;53.356;-1.748;2022-11-24T15:38:27;1.40;;;0.75;;
69256;SDS011;56376;53.356;-1.748;2022-11-24T15:40:53;2.20;;;0.90;;
69256;SDS011;56376;53.356;-1.748;2022-11-24T15:45:55;3.13;;;1.00;;
69256;SDS011;56376;53.356;-1.748;2022-11-24T15:48:21;2.03;;;0.98;;
69256;SDS011;56376;53.356;-1.748;2022-11-24T15:50:47;2.25;;;1.52;;
69256;SDS011;56376;53.356;-1.748;2022-11-24T15:53:23;2.60;;;1.30;;
69256;SDS011;56376;53.356;-1.748;2022-11-24T15:55:52;2.23;;;1.40;;
69256;SDS011;56376;53.356;-1.748;2022-11-24T15:58:18;3.17;;;1.50;;
69256;SDS011;56376;53.356;-1.748;2022-11-24T16:00:43;4.10;;;2.25;;
69256;SDS011;56376;53.356;-1.748;2022-11-24T16:03:09;4.30;;;1.70;;
69256;SDS011;56376;53.356;-1.748;2022-11-24T16:05:38;6.13;;;1.80;;
69256;SDS011;56376;53.356;-1.748;2022-11-24T16:08:05;3.53;;;1.73;;
69256;SDS011;56376;53.356;-1.748;2022-11-24T16:10:35;3.38;;;1.85;;
69256;SDS011;56376;53.356;-1.748;2022-11-24T16:13:01;3.53;;;1.80;;
69256;SDS011;56376;53.356;-1.748;2022-11-24T16:15:26;3.93;;;1.23;;
69256;SDS011;56376;53.356;-1.748;2022-11-24T16:17:52;3.30;;;1.27;;
69256;SDS011;56376;53.356;-1.748;2022-11-24T16:20:17;4.00;;;1.50;;
69256;SDS011;56376;53.356;-1.748;2022-11-24T16:22:43;5.13;;;2.40;;
69256;SDS011;56376;53.356;-1.748;2022-11-24T16:25:09;7.95;;;2.70;;
69256;SDS011;56376;53.356;-1.748;2022-11-24T16:27:35;4.50;;;2.13;;
69256;SDS011;56376;53.356;-1.748;2022-11-24T16:30:00;4.50;;;2.00;;
69256;SDS011;56376;53.356;-1.748;2022-11-24T16:32:26;3.42;;;1.65;;
69256;SDS011;56376;53.356;-1.748;2022-11-24T16:34:52;2.80;;;1.67;;
69256;SDS011;56376;53.356;-1.748;2022-11-24T16:37:18;2.67;;;1.33;;
69256;SDS011;56376;53.356;-1.748;2022-11-24T16:39:45;6.28;;;1.80;;
69256;SDS011;56376;53.356;-1.748;2022-11-24T16:42:11;7.80;;;4.00;;
69256;SDS011;56376;53.356;-1.748;2022-11-24T16:44:37;12.17;;;6.13;;
69256;SDS011;56376;53.356;-1.748;2022-11-24T16:47:02;10.93;;;5.70;;
69256;SDS011;56376;53.356;-1.748;2022-11-24T16:49:27;8.32;;;4.28;;
69256;SDS011;56376;53.356;-1.748;2022-11-24T16:51:53;8.13;;;4.17;;
69256;SDS011;56376;53.356;-1.748;2022-11-24T16:54:18;5.13;;;2.43;;
69256;SDS011;56376;53.356;-1.748;2022-11-24T16:56:44;5.50;;;3.23;;
69256;SDS011;56376;53.356;-1.748;2022-11-24T16:59:09;5.07;;;2.07;;
69256;SDS011;56376;53.356;-1.748;2022-11-24T17:01:35;7.03;;;2.10;;
69256;SDS011;56376;53.356;-1.748;2022-11-24T17:04:01;4.37;;;1.30;;
69256;SDS011;56376;53.356;-1.748;2022-11-24T17:06:26;6.47;;;2.70;;